createdAt,value
2023-01-26T00:01:12.689Z,10.73
2023-01-26T00:03:39.493Z,11.93
2023-01-26T00:06:07.780Z,10.25
2023-01-26T00:08:41.935Z,9.35
2023-01-26T00:11:11.395Z,11.20
2023-01-26T00:13:38.510Z,10.00
2023-01-26T00:16:08.255Z,9.43
2023-01-26T00:18:36.909Z,11.90
2023-01-26T00:21:03.944Z,10.35
2023-01-26T00:23:32.718Z,8.55
2023-01-26T00:25:59.792Z,9.38
2023-01-26T00:28:27.192Z,8.67
2023-01-26T00:30:53.620Z,8.93
2023-01-26T00:33:20.136Z,9.70
2023-01-26T00:35:54.702Z,9.40
2023-01-26T00:38:21.267Z,9.68
2023-01-26T00:40:47.750Z,8.60
2023-01-26T00:43:14.295Z,8.25
2023-01-26T00:45:40.756Z,9.02
2023-01-26T00:48:07.621Z,9.70
2023-01-26T00:50:34.127Z,9.85
2023-01-26T00:53:00.685Z,9.10
2023-01-26T00:55:33.159Z,8.43
2023-01-26T00:58:04.402Z,10.55
2023-01-26T01:00:32.487Z,9.38
2023-01-26T01:02:59.395Z,9.23
2023-01-26T01:05:28.552Z,11.40
2023-01-26T01:07:55.652Z,11.63
2023-01-26T01:10:22.523Z,10.93
2023-01-26T01:12:48.952Z,10.55
2023-01-26T01:15:15.733Z,11.05
2023-01-26T01:17:42.179Z,11.10
2023-01-26T01:20:10.655Z,12.13
2023-01-26T01:22:37.881Z,9.20
2023-01-26T01:25:04.900Z,11.77
2023-01-26T01:27:31.587Z,12.50
2023-01-26T01:29:58.083Z,10.67
2023-01-26T01:32:24.562Z,12.40
2023-01-26T01:34:50.984Z,11.55
2023-01-26T01:37:18.294Z,12.20
2023-01-26T01:39:44.724Z,14.70
2023-01-26T01:42:11.271Z,12.23
2023-01-26T01:44:38.786Z,11.45
2023-01-26T01:47:21.194Z,13.18
2023-01-26T01:49:50.796Z,14.27
2023-01-26T01:52:26.222Z,12.75
2023-01-26T01:54:56.009Z,13.00
2023-01-26T01:57:29.135Z,14.57
2023-01-26T02:00:04.069Z,15.52
2023-01-26T02:02:30.764Z,15.00
2023-01-26T02:05:04.363Z,12.73
2023-01-26T02:07:32.414Z,17.37
2023-01-26T02:10:17.949Z,16.00
2023-01-26T02:12:46.409Z,16.25
2023-01-26T02:15:13.527Z,17.08
2023-01-26T02:17:40.357Z,18.35
2023-01-26T02:20:32.105Z,17.23
2023-01-26T02:23:08.531Z,18.48
2023-01-26T02:25:34.981Z,18.77
2023-01-26T02:28:01.489Z,16.20
2023-01-26T02:30:29.073Z,17.90
2023-01-26T02:32:55.607Z,25.40
2023-01-26T02:35:22.094Z,24.10
2023-01-26T02:37:48.612Z,20.70
2023-01-26T02:40:43.451Z,21.23
2023-01-26T02:43:11.459Z,20.65
2023-01-26T02:45:40.301Z,18.50
2023-01-26T02:48:07.990Z,16.02
2023-01-26T02:50:35.415Z,17.60
2023-01-26T02:53:02.484Z,16.75
2023-01-26T02:55:29.024Z,27.95
2023-01-26T02:57:58.862Z,13.50
2023-01-26T03:00:31.018Z,16.67
2023-01-26T03:03:00.711Z,17.50
2023-01-26T03:05:28.701Z,16.23
2023-01-26T03:07:55.226Z,15.57
2023-01-26T03:10:24.165Z,15.50
2023-01-26T03:12:50.574Z,15.98
2023-01-26T03:15:42.831Z,12.48
2023-01-26T03:18:30.384Z,13.98
2023-01-26T03:21:18.204Z,14.20
2023-01-26T03:24:03.477Z,16.57
2023-01-26T03:26:48.564Z,14.70
2023-01-26T03:29:15.039Z,16.10
2023-01-26T03:31:41.556Z,16.38
2023-01-26T03:34:07.999Z,14.48
2023-01-26T03:36:34.616Z,17.10
2023-01-26T03:39:01.045Z,15.20
2023-01-26T03:41:46.023Z,14.60
2023-01-26T03:44:31.429Z,13.05
2023-01-26T03:47:16.669Z,15.57
2023-01-26T03:50:01.671Z,12.40
2023-01-26T03:52:46.622Z,13.23
2023-01-26T03:55:31.705Z,15.55
2023-01-26T03:57:58.124Z,14.43
2023-01-26T04:00:24.546Z,14.43
2023-01-26T04:03:09.558Z,14.20
2023-01-26T04:05:54.304Z,14.88
2023-01-26T04:08:22.155Z,12.73
2023-01-26T04:10:51.239Z,13.45
2023-01-26T04:13:38.129Z,14.55
2023-01-26T04:16:23.519Z,11.50
2023-01-26T04:19:08.850Z,10.07
2023-01-26T04:21:36.424Z,14.18
2023-01-26T04:24:16.657Z,81.20
2023-01-26T04:26:44.232Z,13.40
2023-01-26T04:29:13.257Z,13.80
2023-01-26T04:31:41.183Z,12.43
2023-01-26T04:34:11.808Z,12.63
2023-01-26T04:36:38.797Z,12.98
2023-01-26T04:39:05.533Z,9.88
2023-01-26T04:41:32.358Z,13.93
2023-01-26T04:43:58.981Z,24.20
2023-01-26T04:46:26.018Z,12.80
2023-01-26T04:48:52.854Z,13.20
2023-01-26T04:51:21.066Z,11.60
2023-01-26T04:53:50.045Z,11.70
2023-01-26T04:56:27.732Z,13.98
2023-01-26T04:58:55.129Z,11.38
2023-01-26T05:01:21.963Z,10.90
2023-01-26T05:03:48.627Z,11.15
2023-01-26T05:06:15.319Z,10.80
2023-01-26T05:08:42.146Z,10.73
2023-01-26T05:11:09.033Z,10.13
2023-01-26T05:13:39.576Z,10.02
2023-01-26T05:16:06.504Z,9.98
2023-01-26T05:18:32.933Z,11.03
2023-01-26T05:20:59.444Z,12.55
2023-01-26T05:23:26.268Z,12.65
2023-01-26T05:25:52.773Z,9.45
2023-01-26T05:28:19.235Z,10.55
2023-01-26T05:30:47.156Z,10.37
2023-01-26T05:33:13.949Z,9.60
2023-01-26T05:35:40.383Z,10.60
2023-01-26T05:38:06.922Z,9.48
2023-01-26T05:40:33.505Z,9.25
2023-01-26T05:43:00.171Z,9.53
2023-01-26T05:45:26.764Z,11.73
2023-01-26T05:47:53.237Z,8.75
2023-01-26T05:50:19.904Z,10.43
2023-01-26T05:52:46.676Z,9.80
2023-01-26T05:55:13.757Z,12.47
2023-01-26T05:57:40.141Z,11.63
2023-01-26T06:02:34.477Z,10.68
2023-01-26T06:05:01.037Z,10.05
2023-01-26T06:07:27.441Z,11.17
2023-01-26T06:09:53.878Z,10.55
2023-01-26T06:12:21.530Z,11.38
2023-01-26T06:14:48.112Z,12.15
2023-01-26T06:17:16.749Z,10.18
2023-01-26T06:19:43.907Z,10.13
2023-01-26T06:22:12.251Z,12.45
2023-01-26T06:24:38.763Z,11.68
2023-01-26T06:27:07.373Z,10.73
2023-01-26T06:29:34.000Z,12.48
2023-01-26T06:32:00.918Z,12.77
2023-01-26T06:34:27.373Z,14.35
2023-01-26T06:36:53.933Z,13.50
2023-01-26T06:39:20.333Z,13.38
2023-01-26T06:41:46.761Z,11.23
2023-01-26T06:44:13.207Z,12.73
2023-01-26T06:46:39.828Z,15.77
2023-01-26T06:49:06.328Z,12.40
2023-01-26T06:51:53.126Z,13.32
2023-01-26T06:54:19.702Z,13.85
2023-01-26T06:56:46.224Z,16.17
2023-01-26T06:59:12.735Z,16.52
2023-01-26T07:01:45.475Z,14.23
2023-01-26T07:04:13.408Z,12.80
2023-01-26T07:06:39.822Z,14.05
2023-01-26T07:09:06.681Z,14.57
2023-01-26T07:11:33.150Z,14.23
2023-01-26T07:13:59.916Z,16.77
2023-01-26T07:16:26.713Z,15.85
2023-01-26T07:18:54.688Z,13.45
2023-01-26T07:21:22.912Z,16.03
2023-01-26T07:23:53.336Z,15.00
2023-01-26T07:26:20.175Z,16.13
2023-01-26T07:28:47.196Z,16.60
2023-01-26T07:31:14.060Z,17.27
2023-01-26T07:33:40.678Z,16.00
2023-01-26T07:36:07.499Z,17.02
2023-01-26T07:38:34.511Z,14.00
2023-01-26T07:41:05.825Z,14.40
2023-01-26T07:43:36.842Z,14.27
2023-01-26T07:46:03.438Z,14.53
2023-01-26T07:48:30.146Z,17.23
2023-01-26T07:51:01.884Z,16.60
2023-01-26T07:53:30.086Z,17.65
2023-01-26T07:56:14.305Z,15.82
2023-01-26T07:58:40.799Z,14.97
2023-01-26T08:01:13.086Z,16.42
2023-01-26T08:03:40.651Z,15.25
2023-01-26T08:06:11.769Z,16.85
2023-01-26T08:08:42.111Z,15.98
2023-01-26T08:11:10.471Z,15.50
2023-01-26T08:13:37.834Z,15.73
2023-01-26T08:16:12.667Z,15.45
2023-01-26T08:18:41.115Z,17.35
2023-01-26T08:21:07.857Z,17.13
2023-01-26T08:23:34.579Z,18.90
2023-01-26T08:26:06.352Z,16.13
2023-01-26T08:28:34.157Z,13.32
2023-01-26T08:31:12.243Z,16.52
2023-01-26T08:33:41.315Z,15.57
2023-01-26T08:36:11.569Z,16.07
2023-01-26T08:38:38.023Z,16.20
2023-01-26T08:41:05.037Z,15.95
2023-01-26T08:43:31.872Z,15.60
2023-01-26T08:45:58.981Z,19.23
2023-01-26T08:48:25.706Z,19.70
2023-01-26T08:51:00.776Z,17.90
2023-01-26T08:53:30.457Z,15.07
2023-01-26T08:55:56.990Z,17.15
2023-01-26T08:58:23.425Z,17.20
2023-01-26T09:00:50.015Z,15.37
2023-01-26T09:03:16.741Z,17.50
2023-01-26T09:05:43.206Z,20.00
2023-01-26T09:08:10.734Z,19.60
2023-01-26T09:10:38.868Z,15.27
2023-01-26T09:13:05.591Z,15.67
2023-01-26T09:15:32.177Z,19.15
2023-01-26T09:18:00.755Z,16.23
2023-01-26T09:20:28.398Z,15.48
2023-01-26T09:22:54.905Z,16.80
2023-01-26T09:25:21.499Z,18.53
2023-01-26T09:27:48.060Z,16.83
2023-01-26T09:30:15.185Z,17.50
2023-01-26T09:32:41.620Z,16.30
2023-01-26T09:35:14.141Z,15.10
2023-01-26T09:37:43.533Z,14.97
2023-01-26T09:40:19.081Z,15.35
2023-01-26T09:43:20.839Z,13.35
2023-01-26T09:46:00.584Z,13.25
2023-01-26T09:48:37.744Z,14.70
2023-01-26T09:51:27.868Z,14.47
2023-01-26T09:53:59.353Z,13.68
2023-01-26T09:56:29.951Z,14.10
2023-01-26T09:59:03.019Z,14.60
2023-01-26T10:01:49.816Z,12.18
2023-01-26T10:04:37.447Z,12.27
2023-01-26T10:07:14.114Z,12.27
2023-01-26T10:09:46.000Z,13.05
2023-01-26T10:12:30.820Z,15.18
2023-01-26T10:15:08.464Z,13.43
2023-01-26T10:17:38.978Z,14.47
2023-01-26T10:20:07.804Z,13.18
2023-01-26T10:22:43.688Z,11.40
2023-01-26T10:25:15.827Z,12.07
2023-01-26T10:27:45.901Z,12.30
2023-01-26T10:30:15.015Z,11.33
2023-01-26T10:32:44.548Z,11.73
2023-01-26T10:35:20.919Z,12.93
2023-01-26T10:37:48.101Z,14.63
2023-01-26T10:40:14.665Z,12.07
2023-01-26T10:42:41.403Z,12.50
2023-01-26T10:45:31.181Z,17.48
2023-01-26T10:48:18.305Z,13.52
2023-01-26T10:50:47.027Z,13.20
2023-01-26T10:53:29.969Z,12.05
2023-01-26T10:56:02.073Z,12.73
2023-01-26T10:58:49.755Z,13.65
2023-01-26T11:01:18.676Z,12.65
2023-01-26T11:04:15.227Z,13.32
2023-01-26T11:06:41.792Z,14.85
2023-01-26T11:09:26.234Z,15.57
2023-01-26T11:12:01.561Z,15.52
2023-01-26T11:14:29.683Z,13.60
2023-01-26T11:17:22.468Z,15.98
2023-01-26T11:19:51.610Z,13.73
2023-01-26T11:22:27.895Z,14.93
2023-01-26T11:25:04.943Z,15.27
2023-01-26T11:27:41.492Z,14.73
2023-01-26T11:30:29.241Z,14.82
2023-01-26T11:33:46.886Z,13.18
2023-01-26T11:36:34.486Z,15.67
2023-01-26T11:39:19.207Z,17.42
2023-01-26T11:41:45.585Z,16.33
2023-01-26T11:44:17.901Z,14.55
2023-01-26T11:46:56.427Z,16.02
2023-01-26T11:49:28.967Z,14.80
2023-01-26T11:52:30.096Z,18.10
2023-01-26T11:55:16.811Z,15.60
2023-01-26T11:57:50.905Z,14.55
2023-01-26T12:00:31.073Z,15.18
2023-01-26T12:03:17.583Z,16.57
2023-01-26T12:05:48.578Z,16.77
2023-01-26T12:08:23.132Z,16.42
2023-01-26T12:11:23.108Z,19.20
2023-01-26T12:14:27.061Z,21.67
2023-01-26T12:17:17.766Z,16.23
2023-01-26T12:20:05.699Z,19.70
2023-01-26T12:22:38.562Z,19.90
2023-01-26T12:25:32.453Z,20.17
2023-01-26T12:28:24.654Z,18.88
2023-01-26T12:31:33.966Z,17.93
2023-01-26T12:34:00.469Z,22.13
2023-01-26T12:36:48.084Z,17.75
2023-01-26T12:39:39.803Z,18.33
2023-01-26T12:42:28.159Z,19.42
2023-01-26T12:44:57.006Z,20.47
2023-01-26T12:47:48.193Z,21.45
2023-01-26T12:50:38.637Z,17.23
2023-01-26T12:53:30.243Z,20.40
2023-01-26T12:56:11.130Z,17.20
2023-01-26T12:58:43.148Z,19.10
2023-01-26T13:01:13.115Z,16.73
2023-01-26T13:03:44.050Z,17.10
2023-01-26T13:06:10.490Z,16.70
2023-01-26T13:08:37.002Z,17.25
2023-01-26T13:11:09.199Z,18.37
2023-01-26T13:13:56.618Z,18.25
2023-01-26T13:16:23.658Z,21.90
2023-01-26T13:18:54.691Z,17.13
2023-01-26T13:21:36.332Z,18.58
2023-01-26T13:24:03.119Z,18.53
2023-01-26T13:26:32.563Z,20.55
2023-01-26T13:29:33.288Z,20.38
2023-01-26T13:32:02.036Z,20.35
2023-01-26T13:34:35.641Z,21.08
2023-01-26T13:37:44.301Z,22.07
2023-01-26T13:40:44.464Z,19.88
2023-01-26T13:43:27.052Z,18.88
2023-01-26T13:46:23.103Z,18.80
2023-01-26T13:48:51.047Z,17.40
2023-01-26T13:51:28.487Z,17.87
2023-01-26T13:54:04.983Z,17.98
2023-01-26T13:56:39.837Z,22.23
2023-01-26T13:59:07.280Z,21.50
2023-01-26T14:01:34.173Z,20.15
2023-01-26T14:04:07.679Z,21.87
2023-01-26T14:06:36.990Z,24.90
2023-01-26T14:09:11.075Z,20.77
2023-01-26T14:11:45.307Z,21.40
2023-01-26T14:14:24.723Z,38.83
2023-01-26T14:16:51.384Z,20.27
2023-01-26T14:19:24.421Z,23.60
2023-01-26T14:21:55.339Z,21.73
2023-01-26T14:24:44.201Z,23.17
2023-01-26T14:27:31.475Z,26.13
2023-01-26T14:29:59.026Z,27.60
2023-01-26T14:32:29.363Z,26.08
2023-01-26T14:35:01.998Z,22.58
2023-01-26T14:37:28.941Z,25.90
2023-01-26T14:40:20.397Z,26.98
2023-01-26T14:42:54.931Z,24.20
2023-01-26T14:45:31.226Z,24.65
2023-01-26T14:48:06.690Z,26.15
2023-01-26T14:50:35.213Z,25.20
2023-01-26T14:53:04.091Z,26.48
2023-01-26T14:55:35.168Z,26.50
2023-01-26T14:58:04.417Z,25.75
2023-01-26T15:00:35.145Z,26.98
2023-01-26T15:03:13.055Z,25.60
2023-01-26T15:05:42.087Z,27.40
2023-01-26T15:08:21.286Z,22.77
2023-01-26T15:11:19.127Z,28.13
2023-01-26T15:13:48.600Z,30.88
2023-01-26T15:16:18.190Z,28.35
2023-01-26T15:18:45.805Z,23.05
2023-01-26T15:21:20.674Z,25.20
2023-01-26T15:23:52.138Z,24.38
2023-01-26T15:26:30.708Z,25.38
2023-01-26T15:28:59.507Z,23.95
2023-01-26T15:31:39.602Z,25.45
2023-01-26T15:34:06.865Z,22.93
2023-01-26T15:36:46.652Z,26.30
2023-01-26T15:39:18.405Z,24.13
2023-01-26T15:42:13.263Z,23.67
2023-01-26T15:44:40.486Z,25.58
2023-01-26T15:47:14.310Z,27.47
2023-01-26T15:49:42.126Z,25.05
2023-01-26T15:52:30.113Z,22.60
2023-01-26T15:54:56.795Z,22.33
2023-01-26T15:57:23.258Z,31.00
2023-01-26T15:59:49.638Z,22.03
2023-01-26T16:02:18.886Z,28.10
2023-01-26T16:04:45.911Z,25.42
2023-01-26T16:07:14.035Z,23.80
2023-01-26T16:09:41.045Z,25.02
2023-01-26T16:12:33.483Z,24.63
2023-01-26T16:15:00.697Z,23.25
2023-01-26T16:17:27.283Z,29.50
2023-01-26T16:19:53.909Z,23.05
2023-01-26T16:22:20.526Z,27.92
2023-01-26T16:24:47.372Z,30.60
2023-01-26T16:27:13.882Z,28.45
2023-01-26T16:29:40.424Z,43.13
2023-01-26T16:32:26.296Z,32.30
2023-01-26T16:34:52.972Z,29.48
2023-01-26T16:37:19.388Z,30.07
2023-01-26T16:39:45.843Z,30.02
2023-01-26T16:42:18.449Z,30.67
2023-01-26T16:44:45.735Z,27.27
2023-01-26T16:47:12.225Z,29.67
2023-01-26T16:49:38.651Z,30.97
2023-01-26T16:52:05.039Z,28.98
2023-01-26T16:54:31.468Z,24.52
2023-01-26T16:56:57.903Z,28.65
2023-01-26T16:59:24.434Z,27.83
2023-01-26T17:01:51.159Z,26.07
2023-01-26T17:04:17.661Z,27.65
2023-01-26T17:06:44.077Z,27.88
2023-01-26T17:09:10.628Z,32.50
2023-01-26T17:11:37.132Z,32.17
2023-01-26T17:14:03.725Z,29.80
2023-01-26T17:16:31.983Z,29.60
2023-01-26T17:18:58.849Z,31.13
2023-01-26T17:21:26.764Z,34.00
2023-01-26T17:23:55.320Z,30.88
2023-01-26T17:26:22.743Z,28.43
2023-01-26T17:28:52.895Z,78.30
2023-01-26T17:31:20.987Z,32.42
2023-01-26T17:33:49.307Z,33.55
2023-01-26T17:36:17.177Z,31.50
2023-01-26T17:38:43.832Z,36.30
2023-01-26T17:41:10.771Z,32.90
2023-01-26T17:43:37.204Z,29.80
2023-01-26T17:46:06.626Z,30.80
2023-01-26T17:48:34.981Z,32.28
2023-01-26T17:51:04.996Z,45.70
2023-01-26T17:53:31.338Z,39.80
2023-01-26T17:55:57.754Z,31.95
2023-01-26T17:58:24.161Z,34.40
2023-01-26T18:00:50.557Z,33.08
2023-01-26T18:03:17.007Z,35.87
2023-01-26T18:05:51.745Z,38.00
2023-01-26T18:08:18.654Z,35.97
2023-01-26T18:10:45.692Z,39.03
2023-01-26T18:13:12.357Z,36.70
2023-01-26T18:15:39.064Z,37.87
2023-01-26T18:18:06.577Z,35.30
2023-01-26T18:20:33.417Z,34.20
2023-01-26T18:23:00.373Z,33.50
2023-01-26T18:25:27.082Z,32.08
2023-01-26T18:27:54.285Z,34.77
2023-01-26T18:30:20.890Z,38.53
2023-01-26T18:32:47.331Z,36.15
2023-01-26T18:35:14.119Z,33.05
2023-01-26T18:37:40.621Z,36.67
2023-01-26T18:40:08.300Z,36.17
2023-01-26T18:42:34.734Z,38.67
2023-01-26T18:45:01.369Z,43.55
2023-01-26T18:47:28.487Z,43.53
2023-01-26T18:49:55.064Z,38.40
2023-01-26T18:52:22.184Z,37.70
2023-01-26T18:54:48.861Z,41.97
2023-01-26T18:57:15.696Z,35.60
2023-01-26T18:59:42.521Z,37.13
2023-01-26T19:02:13.339Z,35.97
2023-01-26T19:04:41.163Z,37.17
2023-01-26T19:07:12.089Z,39.05
2023-01-26T19:09:38.945Z,40.80
2023-01-26T19:12:06.230Z,39.50
2023-01-26T19:14:32.979Z,33.58
2023-01-26T19:16:59.952Z,36.20
2023-01-26T19:19:26.826Z,36.00
2023-01-26T19:21:53.277Z,39.88
2023-01-26T19:24:19.709Z,40.88
2023-01-26T19:26:46.126Z,39.67
2023-01-26T19:29:12.668Z,37.93
2023-01-26T19:31:39.189Z,42.30
2023-01-26T19:34:13.231Z,37.63
2023-01-26T19:36:40.226Z,38.28
2023-01-26T19:39:07.128Z,40.83
2023-01-26T19:41:33.999Z,38.40
2023-01-26T19:44:00.992Z,32.80
2023-01-26T19:46:27.475Z,36.63
2023-01-26T19:48:54.148Z,38.88
2023-01-26T19:51:23.614Z,37.05
2023-01-26T19:53:53.195Z,36.30
2023-01-26T19:56:22.748Z,36.90
2023-01-26T19:58:54.567Z,38.97
2023-01-26T20:01:22.033Z,38.92
2023-01-26T20:03:53.319Z,34.85
2023-01-26T20:06:22.579Z,58.33
2023-01-26T20:08:49.882Z,50.30
2023-01-26T20:11:17.632Z,37.05
2023-01-26T20:13:44.296Z,35.17
2023-01-26T20:16:13.731Z,38.13
2023-01-26T20:18:40.542Z,37.43
2023-01-26T20:21:07.324Z,46.80
2023-01-26T20:23:34.530Z,35.42
2023-01-26T20:26:03.590Z,34.65
2023-01-26T20:28:30.427Z,37.00
2023-01-26T20:31:04.099Z,37.27
2023-01-26T20:33:30.792Z,33.72
2023-01-26T20:35:57.205Z,40.22
2023-01-26T20:38:23.639Z,34.50
2023-01-26T20:40:50.103Z,40.13
2023-01-26T20:43:16.585Z,39.43
2023-01-26T20:45:43.115Z,143.88
2023-01-26T20:48:09.627Z,38.35
2023-01-26T20:50:40.050Z,36.58
2023-01-26T20:53:10.256Z,43.15
2023-01-26T20:55:36.672Z,30.13
2023-01-26T20:58:06.791Z,36.72
2023-01-26T21:00:33.521Z,32.47
2023-01-26T21:03:00.206Z,33.45
2023-01-26T21:05:26.873Z,31.90
2023-01-26T21:07:53.289Z,30.97
2023-01-26T21:10:19.727Z,32.30
2023-01-26T21:12:46.251Z,28.63
2023-01-26T21:15:12.772Z,26.05
2023-01-26T21:17:39.148Z,31.17
2023-01-26T21:20:06.131Z,29.67
2023-01-26T21:22:32.580Z,29.88
2023-01-26T21:24:59.080Z,32.75
2023-01-26T21:27:25.546Z,29.65
2023-01-26T21:29:52.011Z,29.13
2023-01-26T21:32:18.650Z,30.17
2023-01-26T21:34:45.126Z,29.77
2023-01-26T21:37:11.607Z,27.23
2023-01-26T21:39:38.030Z,22.83
2023-01-26T21:42:04.638Z,26.00
2023-01-26T21:44:53.337Z,27.93
2023-01-26T21:47:19.829Z,31.23
2023-01-26T21:49:47.702Z,31.15
2023-01-26T21:52:32.601Z,24.40
2023-01-26T21:54:59.478Z,32.50
2023-01-26T21:57:44.625Z,26.87
2023-01-26T22:00:11.955Z,27.35
2023-01-26T22:02:38.749Z,27.30
2023-01-26T22:05:05.632Z,25.38
2023-01-26T22:07:32.296Z,26.83
2023-01-26T22:09:58.784Z,28.27
2023-01-26T22:12:25.204Z,29.42
2023-01-26T22:14:52.154Z,27.65
2023-01-26T22:17:18.544Z,26.92
2023-01-26T22:19:45.017Z,25.83
2023-01-26T22:22:12.591Z,23.80
2023-01-26T22:24:39.010Z,23.52
2023-01-26T22:27:08.169Z,23.67
2023-01-26T22:29:34.756Z,28.08
2023-01-26T22:32:02.621Z,25.65
2023-01-26T22:34:29.222Z,26.83
2023-01-26T22:36:55.648Z,25.65
2023-01-26T22:39:22.087Z,26.08
2023-01-26T22:41:48.670Z,25.40
2023-01-26T22:44:15.127Z,25.98
2023-01-26T22:46:41.597Z,24.77
2023-01-26T22:49:09.681Z,28.13
2023-01-26T22:51:37.338Z,23.02
2023-01-26T22:54:04.811Z,24.92
2023-01-26T22:56:31.415Z,26.20
2023-01-26T22:59:00.659Z,26.33
2023-01-26T23:01:32.288Z,25.30
2023-01-26T23:04:00.250Z,22.77
2023-01-26T23:06:27.008Z,25.50
2023-01-26T23:08:54.264Z,22.00
2023-01-26T23:11:22.703Z,23.47
2023-01-26T23:13:51.059Z,22.40
2023-01-26T23:16:18.259Z,23.48
2023-01-26T23:18:45.241Z,26.52
2023-01-26T23:21:12.504Z,24.98
2023-01-26T23:23:40.780Z,26.80
2023-01-26T23:26:08.331Z,23.85
2023-01-26T23:28:38.697Z,23.08
2023-01-26T23:31:05.754Z,20.67
2023-01-26T23:33:34.027Z,25.05
2023-01-26T23:36:01.011Z,23.13
2023-01-26T23:38:29.479Z,22.58
2023-01-26T23:40:56.349Z,22.75
2023-01-26T23:43:23.705Z,24.80
2023-01-26T23:45:51.031Z,24.45
2023-01-26T23:48:18.430Z,21.03
2023-01-26T23:50:45.736Z,23.55
2023-01-26T23:53:12.649Z,30.10
2023-01-26T23:55:42.979Z,22.95
2023-01-26T23:58:10.203Z,25.63
